sensor_id;sensor_type;location;lat;lon;timestamp;pressure;altitude;pressure_sealevel;temperature;humidity
11542;BME280;5827;49.482;7.716;2022-11-20T00:00:06;98293.88;;;4.96;100.00
11542;BME280;5827;49.482;7.716;2022-11-20T00:02:08;98293.75;;;5.09;100.00
11542;BME280;5827;49.482;7.716;2022-11-20T00:04:10;98297.88;;;5.05;100.00
11542;BME280;5827;49.482;7.716;2022-11-20T00:06:15;98301.59;;;5.23;100.00
11542;BME280;5827;49.482;7.716;2022-11-20T00:08:16;98297.66;;;5.25;100.00
11542;BME280;5827;49.482;7.716;2022-11-20T00:10:18;98297.53;;;5.39;100.00
11542;BME280;5827;49.482;7.716;2022-11-20T00:12:19;98299.06;;;5.28;100.00
11542;BME280;5827;49.482;7.716;2022-11-20T00:14:21;98294.28;;;5.37;100.00
11542;BME280;5827;49.482;7.716;2022-11-20T00:16:24;98292.97;;;5.46;100.00
11542;BME280;5827;49.482;7.716;2022-11-20T00:18:26;98287.84;;;5.44;100.00
11542;BME280;5827;49.482;7.716;2022-11-20T00:20:28;98287.56;;;5.34;100.00
11542;BME280;5827;49.482;7.716;2022-11-20T00:22:31;98292.44;;;5.37;100.00
11542;BME280;5827;49.482;7.716;2022-11-20T00:24:33;98292.06;;;5.52;100.00
11542;BME280;5827;49.482;7.716;2022-11-20T00:26:34;98290.22;;;5.52;100.00
11542;BME280;5827;49.482;7.716;2022-11-20T00:28:36;98288.16;;;5.54;100.00
11542;BME280;5827;49.482;7.716;2022-11-20T00:30:38;98289.53;;;5.57;100.00
11542;BME280;5827;49.482;7.716;2022-11-20T00:32:39;98289.91;;;5.60;100.00
11542;BME280;5827;49.482;7.716;2022-11-20T00:34:41;98295.75;;;5.51;100.00
11542;BME280;5827;49.482;7.716;2022-11-20T00:36:42;98292.50;;;5.49;100.00
11542;BME280;5827;49.482;7.716;2022-11-20T00:38:46;98294.19;;;5.61;100.00
11542;BME280;5827;49.482;7.716;2022-11-20T00:40:55;98290.97;;;5.59;100.00
11542;BME280;5827;49.482;7.716;2022-11-20T00:42:56;98292.81;;;5.59;100.00
11542;BME280;5827;49.482;7.716;2022-11-20T00:44:58;98299.59;;;5.55;100.00
11542;BME280;5827;49.482;7.716;2022-11-20T00:46:59;98304.78;;;5.50;100.00
11542;BME280;5827;49.482;7.716;2022-11-20T00:49:01;98297.38;;;5.52;100.00
11542;BME280;5827;49.482;7.716;2022-11-20T00:51:03;98298.16;;;5.16;100.00
11542;BME280;5827;49.482;7.716;2022-11-20T00:53:04;98301.28;;;5.31;100.00
11542;BME280;5827;49.482;7.716;2022-11-20T00:55:07;98291.53;;;5.43;100.00
11542;BME280;5827;49.482;7.716;2022-11-20T00:57:09;98298.41;;;5.51;100.00
11542;BME280;5827;49.482;7.716;2022-11-20T00:59:11;98288.50;;;5.40;100.00
11542;BME280;5827;49.482;7.716;2022-11-20T01:01:14;98289.78;;;5.19;100.00
11542;BME280;5827;49.482;7.716;2022-11-20T01:03:16;98298.41;;;5.51;100.00
11542;BME280;5827;49.482;7.716;2022-11-20T01:05:18;98291.97;;;5.58;100.00
11542;BME280;5827;49.482;7.716;2022-11-20T01:07:19;98283.13;;;5.65;100.00
11542;BME280;5827;49.482;7.716;2022-11-20T01:09:21;98285.19;;;5.44;100.00
11542;BME280;5827;49.482;7.716;2022-11-20T01:11:26;98277.59;;;5.48;100.00
11542;BME280;5827;49.482;7.716;2022-11-20T01:13:28;98281.13;;;5.60;100.00
11542;BME280;5827;49.482;7.716;2022-11-20T01:15:39;98278.25;;;5.61;100.00
11542;BME280;5827;49.482;7.716;2022-11-20T01:17:40;98273.91;;;5.49;100.00
11542;BME280;5827;49.482;7.716;2022-11-20T01:19:42;98281.03;;;5.67;100.00
11542;BME280;5827;49.482;7.716;2022-11-20T01:21:46;98278.38;;;5.67;100.00
11542;BME280;5827;49.482;7.716;2022-11-20T01:23:49;98281.50;;;5.64;100.00
11542;BME280;5827;49.482;7.716;2022-11-20T01:25:51;98277.13;;;5.69;100.00
11542;BME280;5827;49.482;7.716;2022-11-20T01:27:54;98279.00;;;5.50;100.00
11542;BME280;5827;49.482;7.716;2022-11-20T01:29:56;98275.22;;;5.58;100.00
11542;BME280;5827;49.482;7.716;2022-11-20T01:31:57;98276.66;;;5.72;100.00
11542;BME280;5827;49.482;7.716;2022-11-20T01:34:00;98278.66;;;5.77;100.00
11542;BME280;5827;49.482;7.716;2022-11-20T01:36:04;98276.47;;;5.74;100.00
11542;BME280;5827;49.482;7.716;2022-11-20T01:38:06;98269.53;;;5.73;100.00
11542;BME280;5827;49.482;7.716;2022-11-20T01:40:09;98268.97;;;5.52;100.00
11542;BME280;5827;49.482;7.716;2022-11-20T01:42:10;98263.47;;;5.66;100.00
11542;BME280;5827;49.482;7.716;2022-11-20T01:44:48;98267.56;;;5.68;100.00
11542;BME280;5827;49.482;7.716;2022-11-20T01:46:55;98263.22;;;5.55;100.00
11542;BME280;5827;49.482;7.716;2022-11-20T01:49:01;98267.75;;;5.67;100.00
11542;BME280;5827;49.482;7.716;2022-11-20T01:51:06;98270.53;;;5.72;100.00
11542;BME280;5827;49.482;7.716;2022-11-20T01:53:11;98268.69;;;5.72;100.00
11542;BME280;5827;49.482;7.716;2022-11-20T01:55:18;98265.34;;;5.65;100.00
11542;BME280;5827;49.482;7.716;2022-11-20T01:57:20;98271.72;;;5.76;100.00
11542;BME280;5827;49.482;7.716;2022-11-20T01:59:25;98273.13;;;5.78;100.00
11542;BME280;5827;49.482;7.716;2022-11-20T02:01:28;98264.28;;;5.66;100.00
11542;BME280;5827;49.482;7.716;2022-11-20T02:03:30;98273.53;;;5.64;100.00
11542;BME280;5827;49.482;7.716;2022-11-20T02:05:35;98271.75;;;5.39;100.00
11542;BME280;5827;49.482;7.716;2022-11-20T02:07:38;98268.06;;;5.58;100.00
11542;BME280;5827;49.482;7.716;2022-11-20T02:09:40;98273.31;;;5.28;100.00
11542;BME280;5827;49.482;7.716;2022-11-20T02:11:41;98268.81;;;5.29;100.00
11542;BME280;5827;49.482;7.716;2022-11-20T02:13:43;98271.63;;;5.52;100.00
11542;BME280;5827;49.482;7.716;2022-11-20T02:15:45;98271.75;;;5.57;100.00
11542;BME280;5827;49.482;7.716;2022-11-20T02:17:48;98277.06;;;5.57;100.00
11542;BME280;5827;49.482;7.716;2022-11-20T02:19:50;98273.06;;;5.67;100.00
11542;BME280;5827;49.482;7.716;2022-11-20T02:21:59;98274.84;;;5.73;100.00
11542;BME280;5827;49.482;7.716;2022-11-20T02:24:04;98274.38;;;5.76;100.00
11542;BME280;5827;49.482;7.716;2022-11-20T02:26:10;98267.44;;;5.75;100.00
11542;BME280;5827;49.482;7.716;2022-11-20T02:28:13;98268.63;;;5.79;100.00
11542;BME280;5827;49.482;7.716;2022-11-20T02:30:14;98262.19;;;5.86;100.00
11542;BME280;5827;49.482;7.716;2022-11-20T02:32:19;98257.03;;;5.92;100.00
11542;BME280;5827;49.482;7.716;2022-11-20T02:34:21;98261.69;;;5.78;100.00
11542;BME280;5827;49.482;7.716;2022-11-20T02:36:23;98250.88;;;5.61;100.00
11542;BME280;5827;49.482;7.716;2022-11-20T02:38:26;98247.66;;;5.41;100.00
11542;BME280;5827;49.482;7.716;2022-11-20T02:40:29;98251.50;;;5.75;100.00
11542;BME280;5827;49.482;7.716;2022-11-20T02:42:30;98253.06;;;5.82;100.00
11542;BME280;5827;49.482;7.716;2022-11-20T02:44:32;98247.09;;;5.69;100.00
11542;BME280;5827;49.482;7.716;2022-11-20T02:46:34;98241.41;;;5.65;100.00
11542;BME280;5827;49.482;7.716;2022-11-20T02:48:36;98240.00;;;5.63;100.00
11542;BME280;5827;49.482;7.716;2022-11-20T02:50:38;98240.63;;;5.46;100.00
11542;BME280;5827;49.482;7.716;2022-11-20T02:52:40;98238.22;;;5.75;100.00
11542;BME280;5827;49.482;7.716;2022-11-20T02:54:42;98251.78;;;5.85;100.00
11542;BME280;5827;49.482;7.716;2022-11-20T02:56:45;98254.22;;;5.86;100.00
11542;BME280;5827;49.482;7.716;2022-11-20T02:58:46;98264.03;;;5.86;100.00
11542;BME280;5827;49.482;7.716;2022-11-20T03:00:48;98266.78;;;5.79;100.00
11542;BME280;5827;49.482;7.716;2022-11-20T03:02:49;98255.03;;;5.87;100.00
11542;BME280;5827;49.482;7.716;2022-11-20T03:04:51;98245.38;;;5.93;100.00
11542;BME280;5827;49.482;7.716;2022-11-20T03:06:52;98250.31;;;5.71;100.00
11542;BME280;5827;49.482;7.716;2022-11-20T03:08:55;98240.09;;;5.86;100.00
11542;BME280;5827;49.482;7.716;2022-11-20T03:10:56;98249.88;;;5.92;100.00
11542;BME280;5827;49.482;7.716;2022-11-20T03:12:59;98233.44;;;5.65;100.00
11542;BME280;5827;49.482;7.716;2022-11-20T03:15:01;98254.56;;;5.90;100.00
11542;BME280;5827;49.482;7.716;2022-11-20T03:17:02;98254.78;;;5.89;100.00
11542;BME280;5827;49.482;7.716;2022-11-20T03:19:04;98245.50;;;5.98;100.00
11542;BME280;5827;49.482;7.716;2022-11-20T03:21:06;98238.94;;;6.00;100.00
11542;BME280;5827;49.482;7.716;2022-11-20T03:23:07;98237.41;;;6.04;100.00
11542;BME280;5827;49.482;7.716;2022-11-20T03:25:09;98233.50;;;6.07;100.00
11542;BME280;5827;49.482;7.716;2022-11-20T03:27:10;98235.25;;;6.13;100.00
11542;BME280;5827;49.482;7.716;2022-11-20T03:29:13;98230.28;;;6.17;100.00
11542;BME280;5827;49.482;7.716;2022-11-20T03:31:16;98235.78;;;6.03;100.00
11542;BME280;5827;49.482;7.716;2022-11-20T03:33:18;98226.13;;;6.21;100.00
11542;BME280;5827;49.482;7.716;2022-11-20T03:35:20;98230.53;;;6.27;100.00
11542;BME280;5827;49.482;7.716;2022-11-20T03:37:21;98235.72;;;6.22;100.00
11542;BME280;5827;49.482;7.716;2022-11-20T03:39:23;98225.19;;;6.27;100.00
11542;BME280;5827;49.482;7.716;2022-11-20T03:41:25;98228.72;;;6.51;100.00
11542;BME280;5827;49.482;7.716;2022-11-20T03:43:27;98228.25;;;6.54;100.00
11542;BME280;5827;49.482;7.716;2022-11-20T03:45:29;98228.72;;;6.62;100.00
11542;BME280;5827;49.482;7.716;2022-11-20T03:47:31;98223.06;;;6.71;100.00
11542;BME280;5827;49.482;7.716;2022-11-20T03:49:32;98228.75;;;6.74;100.00
11542;BME280;5827;49.482;7.716;2022-11-20T03:51:35;98223.75;;;6.78;100.00
11542;BME280;5827;49.482;7.716;2022-11-20T03:53:37;98225.28;;;6.74;100.00
11542;BME280;5827;49.482;7.716;2022-11-20T03:55:38;98224.31;;;6.68;100.00
11542;BME280;5827;49.482;7.716;2022-11-20T03:57:40;98224.44;;;6.73;100.00
11542;BME280;5827;49.482;7.716;2022-11-20T03:59:41;98215.75;;;6.78;100.00
11542;BME280;5827;49.482;7.716;2022-11-20T04:01:44;98209.03;;;6.87;100.00
11542;BME280;5827;49.482;7.716;2022-11-20T04:03:46;98217.50;;;6.84;100.00
11542;BME280;5827;49.482;7.716;2022-11-20T04:05:47;98220.53;;;6.87;100.00
11542;BME280;5827;49.482;7.716;2022-11-20T04:07:49;98217.47;;;6.96;100.00
11542;BME280;5827;49.482;7.716;2022-11-20T04:09:50;98225.81;;;6.99;100.00
11542;BME280;5827;49.482;7.716;2022-11-20T04:11:52;98229.06;;;7.01;100.00
11542;BME280;5827;49.482;7.716;2022-11-20T04:13:55;98233.09;;;7.04;100.00
11542;BME280;5827;49.482;7.716;2022-11-20T04:15:57;98235.19;;;6.90;100.00
11542;BME280;5827;49.482;7.716;2022-11-20T04:17:59;98234.84;;;6.86;100.00
11542;BME280;5827;49.482;7.716;2022-11-20T04:20:02;98237.75;;;6.85;100.00
11542;BME280;5827;49.482;7.716;2022-11-20T04:22:03;98231.59;;;6.73;100.00
11542;BME280;5827;49.482;7.716;2022-11-20T04:24:06;98236.47;;;6.76;100.00
11542;BME280;5827;49.482;7.716;2022-11-20T04:26:09;98235.53;;;6.82;100.00
11542;BME280;5827;49.482;7.716;2022-11-20T04:28:11;98226.06;;;6.86;100.00
11542;BME280;5827;49.482;7.716;2022-11-20T04:30:12;98225.59;;;6.89;100.00
11542;BME280;5827;49.482;7.716;2022-11-20T04:32:14;98233.13;;;6.92;100.00
11542;BME280;5827;49.482;7.716;2022-11-20T04:34:17;98227.31;;;6.95;100.00
11542;BME280;5827;49.482;7.716;2022-11-20T04:36:20;98229.53;;;6.98;100.00
11542;BME280;5827;49.482;7.716;2022-11-20T04:38:22;98232.75;;;7.00;100.00
11542;BME280;5827;49.482;7.716;2022-11-20T04:40:23;98234.63;;;6.88;100.00
11542;BME280;5827;49.482;7.716;2022-11-20T04:42:25;98238.78;;;6.72;100.00
11542;BME280;5827;49.482;7.716;2022-11-20T04:44:29;98224.44;;;6.73;100.00
11542;BME280;5827;49.482;7.716;2022-11-20T04:46:32;98217.72;;;6.71;100.00
11542;BME280;5827;49.482;7.716;2022-11-20T04:48:34;98216.78;;;6.77;100.00
11542;BME280;5827;49.482;7.716;2022-11-20T04:50:40;98206.97;;;6.66;100.00
11542;BME280;5827;49.482;7.716;2022-11-20T04:52:42;98204.53;;;6.87;100.00
11542;BME280;5827;49.482;7.716;2022-11-20T04:54:43;98210.78;;;6.93;100.00
11542;BME280;5827;49.482;7.716;2022-11-20T04:56:45;98210.28;;;6.96;100.00
11542;BME280;5827;49.482;7.716;2022-11-20T04:58:48;98208.78;;;7.00;100.00
11542;BME280;5827;49.482;7.716;2022-11-20T05:00:50;98212.59;;;7.16;100.00
11542;BME280;5827;49.482;7.716;2022-11-20T05:02:51;98220.59;;;7.16;100.00
11542;BME280;5827;49.482;7.716;2022-11-20T05:04:53;98207.16;;;7.11;100.00
11542;BME280;5827;49.482;7.716;2022-11-20T05:06:56;98207.72;;;7.25;100.00
11542;BME280;5827;49.482;7.716;2022-11-20T05:08:57;98206.91;;;7.24;100.00
11542;BME280;5827;49.482;7.716;2022-11-20T05:11:00;98212.66;;;7.33;100.00
11542;BME280;5827;49.482;7.716;2022-11-20T05:13:01;98201.44;;;7.31;100.00
11542;BME280;5827;49.482;7.716;2022-11-20T05:15:03;98201.88;;;7.39;100.00
11542;BME280;5827;49.482;7.716;2022-11-20T05:17:05;98202.06;;;7.50;100.00
11542;BME280;5827;49.482;7.716;2022-11-20T05:19:06;98207.41;;;7.50;100.00
11542;BME280;5827;49.482;7.716;2022-11-20T05:21:09;98201.34;;;7.54;100.00
11542;BME280;5827;49.482;7.716;2022-11-20T05:23:12;98198.06;;;7.64;100.00
11542;BME280;5827;49.482;7.716;2022-11-20T05:25:14;98197.84;;;7.66;100.00
11542;BME280;5827;49.482;7.716;2022-11-20T05:27:15;98196.09;;;7.71;100.00
11542;BME280;5827;49.482;7.716;2022-11-20T05:29:17;98193.63;;;7.70;100.00
11542;BME280;5827;49.482;7.716;2022-11-20T05:31:20;98200.13;;;7.74;100.00
11542;BME280;5827;49.482;7.716;2022-11-20T05:33:22;98202.69;;;7.69;100.00
11542;BME280;5827;49.482;7.716;2022-11-20T05:35:23;98198.84;;;7.76;100.00
11542;BME280;5827;49.482;7.716;2022-11-20T05:37:25;98200.38;;;7.72;100.00
11542;BME280;5827;49.482;7.716;2022-11-20T05:39:28;98199.56;;;7.72;100.00
11542;BME280;5827;49.482;7.716;2022-11-20T05:41:29;98190.03;;;7.76;100.00
11542;BME280;5827;49.482;7.716;2022-11-20T05:43:32;98197.06;;;7.82;100.00
11542;BME280;5827;49.482;7.716;2022-11-20T05:45:34;98184.53;;;7.82;100.00
11542;BME280;5827;49.482;7.716;2022-11-20T05:47:36;98194.88;;;7.79;100.00
11542;BME280;5827;49.482;7.716;2022-11-20T05:49:38;98196.88;;;7.72;100.00
11542;BME280;5827;49.482;7.716;2022-11-20T05:51:39;98190.59;;;7.78;100.00
11542;BME280;5827;49.482;7.716;2022-11-20T05:53:41;98191.97;;;7.80;100.00
11542;BME280;5827;49.482;7.716;2022-11-20T05:55:44;98198.84;;;7.76;100.00
11542;BME280;5827;49.482;7.716;2022-11-20T05:57:45;98199.56;;;7.72;100.00
11542;BME280;5827;49.482;7.716;2022-11-20T05:59:47;98200.19;;;7.79;100.00
11542;BME280;5827;49.482;7.716;2022-11-20T06:01:48;98205.94;;;7.71;100.00
11542;BME280;5827;49.482;7.716;2022-11-20T06:03:50;98194.78;;;7.74;100.00
11542;BME280;5827;49.482;7.716;2022-11-20T06:05:52;98202.19;;;7.83;100.00
11542;BME280;5827;49.482;7.716;2022-11-20T06:07:54;98205.88;;;7.82;100.00
11542;BME280;5827;49.482;7.716;2022-11-20T06:09:55;98205.75;;;7.89;100.00
11542;BME280;5827;49.482;7.716;2022-11-20T06:11:58;98210.28;;;7.88;100.00
11542;BME280;5827;49.482;7.716;2022-11-20T06:13:59;98215.81;;;7.87;100.00
11542;BME280;5827;49.482;7.716;2022-11-20T06:16:01;98207.69;;;7.94;100.00
11542;BME280;5827;49.482;7.716;2022-11-20T06:18:03;98206.63;;;7.95;100.00
11542;BME280;5827;49.482;7.716;2022-11-20T06:20:06;98205.75;;;7.89;100.00
11542;BME280;5827;49.482;7.716;2022-11-20T06:22:07;98205.50;;;7.90;100.00
11542;BME280;5827;49.482;7.716;2022-11-20T06:24:09;98197.97;;;7.87;100.00
11542;BME280;5827;49.482;7.716;2022-11-20T06:26:13;98199.34;;;7.90;100.00
11542;BME280;5827;49.482;7.716;2022-11-20T06:28:16;98196.59;;;7.85;100.00
11542;BME280;5827;49.482;7.716;2022-11-20T06:30:18;98197.16;;;7.87;100.00
11542;BME280;5827;49.482;7.716;2022-11-20T06:32:19;98191.91;;;7.92;100.00
11542;BME280;5827;49.482;7.716;2022-11-20T06:34:21;98194.19;;;7.83;100.00
11542;BME280;5827;49.482;7.716;2022-11-20T06:36:22;98192.88;;;7.86;100.00
11542;BME280;5827;49.482;7.716;2022-11-20T06:38:24;98198.78;;;7.88;100.00
11542;BME280;5827;49.482;7.716;2022-11-20T06:40:25;98191.59;;;7.88;100.00
11542;BME280;5827;49.482;7.716;2022-11-20T06:42:27;98196.00;;;7.83;100.00
11542;BME280;5827;49.482;7.716;2022-11-20T06:44:30;98198.78;;;7.88;100.00
11542;BME280;5827;49.482;7.716;2022-11-20T06:46:31;98194.75;;;7.85;100.00
11542;BME280;5827;49.482;7.716;2022-11-20T06:48:33;98193.13;;;7.84;100.00
11542;BME280;5827;49.482;7.716;2022-11-20T06:50:36;98200.06;;;7.85;100.00
11542;BME280;5827;49.482;7.716;2022-11-20T06:52:38;98206.31;;;7.91;100.00
11542;BME280;5827;49.482;7.716;2022-11-20T06:54:39;98204.78;;;7.95;100.00
11542;BME280;5827;49.482;7.716;2022-11-20T06:56:40;98211.97;;;7.95;100.00
11542;BME280;5827;49.482;7.716;2022-11-20T06:58:42;98206.63;;;7.95;100.00
11542;BME280;5827;49.482;7.716;2022-11-20T07:00:45;98219.09;;;7.89;100.00
11542;BME280;5827;49.482;7.716;2022-11-20T07:02:47;98213.91;;;7.99;100.00
11542;BME280;5827;49.482;7.716;2022-11-20T07:04:48;98212.94;;;8.05;100.00
11542;BME280;5827;49.482;7.716;2022-11-20T07:06:50;98217.97;;;8.02;100.00
11542;BME280;5827;49.482;7.716;2022-11-20T07:08:51;98217.09;;;8.13;100.00
11542;BME280;5827;49.482;7.716;2022-11-20T07:10:57;98212.94;;;8.05;100.00
11542;BME280;5827;49.482;7.716;2022-11-20T07:12:58;98215.16;;;8.08;100.00
11542;BME280;5827;49.482;7.716;2022-11-20T07:15:00;98221.63;;;8.12;100.00
11542;BME280;5827;49.482;7.716;2022-11-20T07:17:03;98218.38;;;8.10;100.00
11542;BME280;5827;49.482;7.716;2022-11-20T07:19:04;98214.91;;;8.10;100.00
11542;BME280;5827;49.482;7.716;2022-11-20T07:21:07;98220.00;;;8.11;100.00
11542;BME280;5827;49.482;7.716;2022-11-20T07:23:09;98225.44;;;8.17;100.00
11542;BME280;5827;49.482;7.716;2022-11-20T07:25:11;98225.34;;;8.11;100.00
11542;BME280;5827;49.482;7.716;2022-11-20T07:27:12;98225.91;;;8.13;100.00
11542;BME280;5827;49.482;7.716;2022-11-20T07:29:14;98221.97;;;8.16;100.00
11542;BME280;5827;49.482;7.716;2022-11-20T07:31:16;98220.91;;;8.17;100.00
11542;BME280;5827;49.482;7.716;2022-11-20T07:33:19;98223.56;;;8.17;100.00
11542;BME280;5827;49.482;7.716;2022-11-20T07:35:21;98228.56;;;8.13;100.00
11542;BME280;5827;49.482;7.716;2022-11-20T07:37:23;98220.91;;;8.17;100.00
11542;BME280;5827;49.482;7.716;2022-11-20T07:39:24;98224.47;;;8.23;100.00
11542;BME280;5827;49.482;7.716;2022-11-20T07:41:26;98226.06;;;8.24;100.00
11542;BME280;5827;49.482;7.716;2022-11-20T07:43:27;98226.88;;;8.24;100.00
11542;BME280;5827;49.482;7.716;2022-11-20T07:45:29;98232.78;;;8.26;100.00
11542;BME280;5827;49.482;7.716;2022-11-20T07:47:35;98240.34;;;8.29;100.00
11542;BME280;5827;49.482;7.716;2022-11-20T07:49:37;98235.13;;;8.23;100.00
11542;BME280;5827;49.482;7.716;2022-11-20T07:51:39;98241.09;;;8.13;100.00
11542;BME280;5827;49.482;7.716;2022-11-20T07:53:40;98246.06;;;8.21;100.00
11542;BME280;5827;49.482;7.716;2022-11-20T07:55:42;98238.78;;;8.17;100.00
11542;BME280;5827;49.482;7.716;2022-11-20T07:57:43;98237.16;;;8.32;100.00
11542;BME280;5827;49.482;7.716;2022-11-20T07:59:45;98233.00;;;8.36;100.00
11542;BME280;5827;49.482;7.716;2022-11-20T08:01:46;98238.56;;;8.35;100.00
11542;BME280;5827;49.482;7.716;2022-11-20T08:03:48;98237.34;;;8.43;100.00
11542;BME280;5827;49.482;7.716;2022-11-20T08:05:51;98242.13;;;8.40;100.00
11542;BME280;5827;49.482;7.716;2022-11-20T08:07:52;98242.53;;;8.49;100.00
11542;BME280;5827;49.482;7.716;2022-11-20T08:09:54;98255.81;;;8.44;100.00
11542;BME280;5827;49.482;7.716;2022-11-20T08:11:55;98254.34;;;8.36;100.00
11542;BME280;5827;49.482;7.716;2022-11-20T08:14:14;98253.16;;;8.44;100.00
11542;BME280;5827;49.482;7.716;2022-11-20T08:16:16;98252.34;;;8.44;100.00
11542;BME280;5827;49.482;7.716;2022-11-20T08:18:17;98259.44;;;8.38;100.00
11542;BME280;5827;49.482;7.716;2022-11-20T08:20:19;98264.31;;;8.41;100.00
11542;BME280;5827;49.482;7.716;2022-11-20T08:22:22;98263.50;;;8.40;100.00
11542;BME280;5827;49.482;7.716;2022-11-20T08:24:23;98262.59;;;8.52;100.00
11542;BME280;5827;49.482;7.716;2022-11-20T08:26:26;98263.25;;;8.42;100.00
11542;BME280;5827;49.482;7.716;2022-11-20T08:28:28;98270.59;;;8.52;100.00
11542;BME280;5827;49.482;7.716;2022-11-20T08:30:30;98264.06;;;8.59;100.00
11542;BME280;5827;49.482;7.716;2022-11-20T08:32:31;98261.13;;;8.61;100.00
11542;BME280;5827;49.482;7.716;2022-11-20T08:34:35;98281.56;;;8.67;100.00
11542;BME280;5827;49.482;7.716;2022-11-20T08:36:36;98278.06;;;8.67;100.00
11542;BME280;5827;49.482;7.716;2022-11-20T08:38:39;98280.16;;;8.64;100.00
11542;BME280;5827;49.482;7.716;2022-11-20T08:40:41;98285.03;;;8.68;100.00
11542;BME280;5827;49.482;7.716;2022-11-20T08:43:02;98276.69;;;8.81;100.00
11542;BME280;5827;49.482;7.716;2022-11-20T08:45:05;98286.72;;;8.74;100.00
11542;BME280;5827;49.482;7.716;2022-11-20T08:47:06;98284.13;;;8.79;100.00
11542;BME280;5827;49.482;7.716;2022-11-20T08:49:09;98289.25;;;8.80;100.00
11542;BME280;5827;49.482;7.716;2022-11-20T08:51:12;98289.72;;;8.77;100.00
11542;BME280;5827;49.482;7.716;2022-11-20T08:53:13;98296.59;;;8.90;100.00
11542;BME280;5827;49.482;7.716;2022-11-20T08:55:16;98293.59;;;9.03;100.00
11542;BME280;5827;49.482;7.716;2022-11-20T08:57:17;98296.19;;;8.98;100.00
11542;BME280;5827;49.482;7.716;2022-11-20T08:59:19;98295.94;;;9.00;100.00
11542;BME280;5827;49.482;7.716;2022-11-20T09:01:22;98292.69;;;8.98;100.00
11542;BME280;5827;49.482;7.716;2022-11-20T09:03:24;98301.03;;;9.01;100.00
11542;BME280;5827;49.482;7.716;2022-11-20T09:05:27;98295.06;;;8.94;100.00
11542;BME280;5827;49.482;7.716;2022-11-20T09:07:29;98302.81;;;8.96;100.00
11542;BME280;5827;49.482;7.716;2022-11-20T09:09:31;98308.09;;;8.90;100.00
11542;BME280;5827;49.482;7.716;2022-11-20T09:11:34;98299.59;;;8.94;100.00
11542;BME280;5827;49.482;7.716;2022-11-20T09:13:36;98310.69;;;8.85;100.00
11542;BME280;5827;49.482;7.716;2022-11-20T09:15:37;98304.63;;;8.90;100.00
11542;BME280;5827;49.482;7.716;2022-11-20T09:17:39;98309.72;;;8.91;100.00
11542;BME280;5827;49.482;7.716;2022-11-20T09:19:41;98301.22;;;8.95;100.00
11542;BME280;5827;49.482;7.716;2022-11-20T09:24:38;98297.09;;;8.87;100.00
11542;BME280;5827;49.482;7.716;2022-11-20T09:26:41;98301.44;;;8.93;100.00
11542;BME280;5827;49.482;7.716;2022-11-20T09:28:43;98303.31;;;9.09;100.00
11542;BME280;5827;49.482;7.716;2022-11-20T09:30:44;98309.63;;;9.03;100.00
11542;BME280;5827;49.482;7.716;2022-11-20T09:32:46;98311.16;;;8.99;100.00
11542;BME280;5827;49.482;7.716;2022-11-20T09:34:47;98309.31;;;9.00;100.00
11542;BME280;5827;49.482;7.716;2022-11-20T09:36:49;98305.41;;;9.07;100.00
11542;BME280;5827;49.482;7.716;2022-11-20T09:38:50;98307.09;;;8.97;100.00
11542;BME280;5827;49.482;7.716;2022-11-20T09:40:57;98303.38;;;9.14;100.00
11542;BME280;5827;49.482;7.716;2022-11-20T09:43:03;98305.50;;;9.12;100.00
11542;BME280;5827;49.482;7.716;2022-11-20T09:45:18;98314.13;;;9.20;100.00
11542;BME280;5827;49.482;7.716;2022-11-20T09:47:33;98315.69;;;9.15;100.00
11542;BME280;5827;49.482;7.716;2022-11-20T09:49:54;98313.31;;;9.19;100.00
11542;BME280;5827;49.482;7.716;2022-11-20T09:52:09;98321.47;;;9.07;100.00
11542;BME280;5827;49.482;7.716;2022-11-20T09:54:17;98323.13;;;9.13;100.00
11542;BME280;5827;49.482;7.716;2022-11-20T09:56:20;98319.00;;;9.23;100.00
11542;BME280;5827;49.482;7.716;2022-11-20T09:58:29;98319.00;;;9.23;100.00
11542;BME280;5827;49.482;7.716;2022-11-20T10:00:34;98322.88;;;9.15;100.00
11542;BME280;5827;49.482;7.716;2022-11-20T10:02:40;98321.94;;;9.21;100.00
11542;BME280;5827;49.482;7.716;2022-11-20T10:04:47;98324.91;;;9.25;100.00
11542;BME280;5827;49.482;7.716;2022-11-20T10:11:15;98307.34;;;9.12;100.00
11542;BME280;5827;49.482;7.716;2022-11-20T10:13:33;98319.41;;;9.14;100.00
11542;BME280;5827;49.482;7.716;2022-11-20T10:15:46;98320.00;;;9.16;100.00
11542;BME280;5827;49.482;7.716;2022-11-20T10:18:05;98321.03;;;9.15;100.00
11542;BME280;5827;49.482;7.716;2022-11-20T10:20:16;98324.00;;;9.36;100.00
11542;BME280;5827;49.482;7.716;2022-11-20T10:22:30;98321.94;;;9.43;100.00
11542;BME280;5827;49.482;7.716;2022-11-20T10:24:44;98312.91;;;9.27;100.00
11542;BME280;5827;49.482;7.716;2022-11-20T10:26:56;98317.03;;;9.35;100.00
11542;BME280;5827;49.482;7.716;2022-11-20T10:29:10;98312.50;;;9.35;100.00
11542;BME280;5827;49.482;7.716;2022-11-20T10:31:23;98316.13;;;9.46;100.00
11542;BME280;5827;49.482;7.716;2022-11-20T10:33:31;98309.97;;;9.46;100.00
11542;BME280;5827;49.482;7.716;2022-11-20T10:35:41;98303.66;;;9.57;100.00
11542;BME280;5827;49.482;7.716;2022-11-20T10:37:47;98297.53;;;9.78;100.00
11542;BME280;5827;49.482;7.716;2022-11-20T10:39:54;98281.59;;;9.66;100.00
11542;BME280;5827;49.482;7.716;2022-11-20T10:41:59;98288.63;;;9.95;100.00
11542;BME280;5827;49.482;7.716;2022-11-20T10:44:03;98291.19;;;10.11;100.00
11542;BME280;5827;49.482;7.716;2022-11-20T10:46:10;98292.47;;;10.04;100.00
11542;BME280;5827;49.482;7.716;2022-11-20T10:48:16;98293.66;;;9.91;100.00
11542;BME280;5827;49.482;7.716;2022-11-20T10:50:21;98286.00;;;10.00;100.00
11542;BME280;5827;49.482;7.716;2022-11-20T10:52:28;98285.88;;;9.89;100.00
11542;BME280;5827;49.482;7.716;2022-11-20T10:54:38;98282.84;;;9.81;100.00
11542;BME280;5827;49.482;7.716;2022-11-20T10:56:46;98279.22;;;9.92;100.00
11542;BME280;5827;49.482;7.716;2022-11-20T10:59:04;98279.16;;;9.87;100.00
11542;BME280;5827;49.482;7.716;2022-11-20T11:01:16;98279.88;;;9.77;100.00
11542;BME280;5827;49.482;7.716;2022-11-20T11:03:23;98281.72;;;9.77;100.00
11542;BME280;5827;49.482;7.716;2022-11-20T11:05:35;98280.03;;;9.92;100.00
11542;BME280;5827;49.482;7.716;2022-11-20T11:07:39;98276.88;;;9.74;100.00